Time;durP1;ratioP1;P1;durP2;ratioP2;P2;SDS_P1;SDS_P2;PMS_P1;PMS_P2;Temp;Humidity;BMP_temperature;BMP_pressure;BME280_temperature;BME280_humidity;BME280_pressure;Samples;Min_cycle;Max_cycle;Signal;HPM_P1;HPM_P2
2023/05/10 00:08:21;;;;;;;13.27;10.80;;;13.30;99.90;;;;;;5033305;28;20509;-59
2023/05/10 00:10:46;;;;;;;13.98;10.25;;;13.30;99.90;;;;;;5040217;28;20065;-60
2023/05/10 00:15:59;;;;;;;12.27;9.93;;;13.30;99.90;;;;;;5026717;28;20045;-87
2023/05/10 00:18:25;;;;;;;11.43;9.57;;;13.30;99.90;;;;;;4973454;28;20095;-86
2023/05/10 00:20:51;;;;;;;11.38;9.57;;;13.30;99.90;;;;;;4974934;28;20096;-85
2023/05/10 00:23:17;;;;;;;12.57;9.85;;;13.30;99.90;;;;;;5000562;28;20499;-85
2023/05/10 00:25:42;;;;;;;12.18;9.63;;;13.20;99.90;;;;;;4966821;28;20045;-86
2023/05/10 00:28:08;;;;;;;13.52;9.80;;;13.20;99.90;;;;;;4988409;28;20040;-84
2023/05/10 00:30:34;;;;;;;12.90;9.52;;;13.30;99.90;;;;;;4981328;28;20500;-85
2023/05/10 00:33:00;;;;;;;11.07;8.82;;;13.30;99.90;;;;;;4966478;28;20041;-86
2023/05/10 00:35:25;;;;;;;10.13;7.93;;;13.30;99.90;;;;;;4982804;28;20033;-86
2023/05/10 00:37:51;;;;;;;10.45;8.68;;;13.30;99.90;;;;;;4996480;28;20511;-86
2023/05/10 00:40:17;;;;;;;11.00;8.27;;;13.20;99.90;;;;;;4979363;28;20045;-86
2023/05/10 00:42:43;;;;;;;9.85;7.90;;;13.20;99.90;;;;;;4998453;28;20043;-86
2023/05/10 00:45:09;;;;;;;10.18;7.43;;;13.20;99.90;;;;;;4951550;28;20044;-86
2023/05/10 00:47:35;;;;;;;10.48;8.15;;;13.20;99.90;;;;;;4997103;28;20497;-86
2023/05/10 00:50:01;;;;;;;9.88;7.63;;;13.20;99.90;;;;;;4986233;28;20068;-86
2023/05/10 00:52:28;;;;;;;9.40;7.10;;;13.20;99.90;;;;;;4986499;28;20096;-86
2023/05/10 00:54:54;;;;;;;8.25;6.57;;;13.30;99.90;;;;;;4980840;28;20125;-86
2023/05/10 00:57:21;;;;;;;9.73;7.05;;;13.20;99.90;;;;;;5035490;28;20037;-86
2023/05/10 00:59:47;;;;;;;7.38;6.00;;;13.30;99.90;;;;;;5030785;28;20052;-86
2023/05/10 01:02:13;;;;;;;7.38;5.97;;;13.20;99.90;;;;;;4981391;28;20042;-86
2023/05/10 01:04:39;;;;;;;8.70;6.30;;;13.20;99.90;;;;;;5002492;28;20048;-86
2023/05/10 01:07:05;;;;;;;6.80;5.53;;;13.20;99.90;;;;;;5002018;28;20037;-86
2023/05/10 01:09:31;;;;;;;6.15;4.88;;;13.20;99.90;;;;;;5002873;28;20103;-87
2023/05/10 01:11:58;;;;;;;6.60;5.35;;;13.20;99.90;;;;;;4999807;28;20046;-86
2023/05/10 01:14:25;;;;;;;7.25;5.25;;;13.20;99.90;;;;;;4982731;28;20067;-86
2023/05/10 01:16:53;;;;;;;8.27;5.38;;;13.20;99.90;;;;;;5035458;28;20049;-85
2023/05/10 01:19:34;;;;;;;10.00;5.97;;;13.00;99.90;;;;;;5009379;28;20384;-86
2023/05/10 01:22:41;;;;;;;5.75;4.78;;;13.20;99.90;;;;;;5021294;28;20132;-87
2023/05/10 01:25:48;;;;;;;8.40;5.15;;;13.20;99.90;;;;;;5019048;28;20037;-88
2023/05/10 01:28:46;;;;;;;7.70;4.72;;;13.10;99.90;;;;;;5017145;28;20041;-87
2023/05/10 01:31:33;;;;;;;7.45;4.70;;;13.20;99.90;;;;;;4993059;28;20388;-86
2023/05/10 01:34:09;;;;;;;9.27;4.75;;;13.10;99.90;;;;;;5027995;28;20049;-86
2023/05/10 01:36:42;;;;;;;9.15;5.35;;;13.10;99.90;;;;;;5033449;28;20036;-84
2023/05/10 01:39:29;;;;;;;5.65;4.88;;;13.10;99.90;;;;;;5052871;28;20033;-87
2023/05/10 01:42:08;;;;;;;6.05;4.97;;;13.10;99.90;;;;;;5025481;28;20041;-86
2023/05/10 01:44:49;;;;;;;8.40;4.80;;;13.10;99.90;;;;;;5019635;28;20507;-86
2023/05/10 01:47:36;;;;;;;7.05;5.03;;;13.10;99.90;;;;;;5017213;28;20037;-87
2023/05/10 01:50:06;;;;;;;7.43;4.97;;;13.10;99.90;;;;;;5001161;28;20130;-87
2023/05/10 01:52:36;;;;;;;6.60;4.93;;;13.10;99.90;;;;;;5001199;28;20120;-86
2023/05/10 01:55:06;;;;;;;6.55;5.00;;;13.10;99.90;;;;;;5001183;28;20045;-86
2023/05/10 01:57:35;;;;;;;6.50;4.85;;;13.10;99.90;;;;;;5026235;28;20102;-86
2023/05/10 02:00:04;;;;;;;6.88;4.72;;;13.10;99.90;;;;;;5001353;28;20095;-87
2023/05/10 02:02:33;;;;;;;8.57;5.10;;;13.10;99.90;;;;;;5017081;28;20048;-86
2023/05/10 02:04:59;;;;;;;7.10;5.50;;;13.00;99.90;;;;;;4990793;28;20041;-87
2023/05/10 02:07:28;;;;;;;6.55;5.38;;;13.00;99.90;;;;;;5003676;28;20060;-86
2023/05/10 02:09:55;;;;;;;8.35;5.40;;;13.00;99.90;;;;;;5006162;28;20048;-87
2023/05/10 02:12:22;;;;;;;9.20;5.75;;;13.00;99.90;;;;;;5031699;28;20117;-86
2023/05/10 02:14:50;;;;;;;9.80;5.28;;;13.00;99.90;;;;;;4981502;28;20203;-87
2023/05/10 02:17:17;;;;;;;8.27;5.18;;;13.00;99.90;;;;;;5007740;28;20037;-86
2023/05/10 02:19:45;;;;;;;7.05;5.00;;;13.00;99.90;;;;;;4999551;28;20047;-86
2023/05/10 02:22:12;;;;;;;7.72;5.50;;;12.90;99.90;;;;;;5023284;28;20048;-86
2023/05/10 02:24:39;;;;;;;7.82;5.40;;;12.90;99.90;;;;;;5017776;28;20113;-86
2023/05/10 02:27:06;;;;;;;6.90;5.25;;;12.90;99.90;;;;;;4990443;28;20496;-87
2023/05/10 02:29:33;;;;;;;11.07;5.80;;;13.00;99.90;;;;;;5008128;28;20485;-85
2023/05/10 02:32:00;;;;;;;10.15;5.65;;;12.90;99.90;;;;;;5007976;28;20421;-86
2023/05/10 02:34:27;;;;;;;7.57;5.22;;;12.90;99.90;;;;;;5003587;28;20033;-86
2023/05/10 02:36:54;;;;;;;6.35;5.55;;;12.90;99.90;;;;;;4997845;28;20047;-86
2023/05/10 02:39:22;;;;;;;9.43;5.93;;;12.90;99.90;;;;;;5002216;28;20128;-86
2023/05/10 02:41:50;;;;;;;7.95;6.07;;;12.90;99.90;;;;;;5017702;28;20052;-86
2023/05/10 02:44:19;;;;;;;9.30;5.72;;;12.90;99.90;;;;;;5039833;28;20029;-85
2023/05/10 02:46:45;;;;;;;11.77;6.75;;;12.90;99.90;;;;;;5019980;28;20049;-86
2023/05/10 02:49:11;;;;;;;9.43;6.13;;;12.80;99.90;;;;;;5012663;28;20044;-86
2023/05/10 02:51:46;;;;;;;8.38;7.10;;;12.90;99.90;;;;;;5000842;28;20041;-86
2023/05/10 02:54:18;;;;;;;9.38;7.03;;;12.80;99.90;;;;;;5018095;28;20105;-86
2023/05/10 02:56:51;;;;;;;8.75;6.90;;;12.80;99.90;;;;;;5032395;28;20060;-87
2023/05/10 02:59:16;;;;;;;8.52;6.32;;;12.80;99.90;;;;;;4999535;28;20049;-87
2023/05/10 03:01:42;;;;;;;9.13;7.00;;;12.80;99.90;;;;;;5029412;28;20132;-86
2023/05/10 03:04:09;;;;;;;9.63;6.57;;;12.90;99.90;;;;;;5018227;28;20399;-85
2023/05/10 03:06:35;;;;;;;10.73;6.80;;;12.80;99.90;;;;;;4997413;28;20500;-87
2023/05/10 03:09:02;;;;;;;10.73;6.93;;;12.80;99.90;;;;;;4991381;28;20072;-87
2023/05/10 03:11:42;;;;;;;7.93;6.53;;;12.90;99.90;;;;;;4984355;28;20045;-86
2023/05/10 03:14:43;;;;;;;10.48;7.03;;;12.80;99.90;;;;;;5033344;28;20080;-87
2023/05/10 03:17:08;;;;;;;9.77;6.43;;;12.80;99.90;;;;;;5018172;28;20127;-86
2023/05/10 03:19:50;;;;;;;11.68;6.97;;;12.80;99.90;;;;;;5011507;28;20073;-85
2023/05/10 03:22:30;;;;;;;9.10;6.53;;;12.80;99.90;;;;;;5005841;28;20124;-86
2023/05/10 03:24:57;;;;;;;10.18;6.65;;;12.80;99.90;;;;;;5020724;28;20040;-86
2023/05/10 03:27:26;;;;;;;7.80;6.50;;;12.80;99.90;;;;;;4984635;28;20124;-86
2023/05/10 03:29:53;;;;;;;6.78;6.00;;;12.80;99.90;;;;;;5013052;28;20106;-86
2023/05/10 03:32:19;;;;;;;9.52;6.00;;;12.80;99.90;;;;;;5016790;28;20045;-86
2023/05/10 03:34:44;;;;;;;7.25;6.07;;;12.80;99.90;;;;;;4983683;28;20068;-87
2023/05/10 03:37:10;;;;;;;11.35;6.30;;;12.80;99.90;;;;;;4984495;28;20092;-87
2023/05/10 03:39:36;;;;;;;8.35;6.10;;;12.80;99.90;;;;;;5010522;28;20041;-86
2023/05/10 03:42:02;;;;;;;10.57;6.22;;;12.80;99.90;;;;;;5016259;28;20043;-87
2023/05/10 03:44:28;;;;;;;7.68;6.10;;;12.80;99.90;;;;;;5005095;28;20480;-86
2023/05/10 03:46:53;;;;;;;8.90;6.22;;;12.80;99.90;;;;;;5035147;28;20072;-86
2023/05/10 03:49:19;;;;;;;8.55;6.40;;;12.80;99.90;;;;;;5016219;28;20033;-87
2023/05/10 03:51:45;;;;;;;11.98;6.20;;;12.80;99.90;;;;;;5003129;28;20041;-86
2023/05/10 03:54:10;;;;;;;10.90;6.00;;;12.80;99.90;;;;;;5040944;28;20037;-85
2023/05/10 03:56:36;;;;;;;8.30;5.20;;;12.80;99.90;;;;;;5011364;28;20190;-86
2023/05/10 03:59:07;;;;;;;6.47;4.97;;;12.80;99.90;;;;;;5006182;28;20103;-88
2023/05/10 04:01:34;;;;;;;5.88;4.53;;;12.80;99.90;;;;;;5001543;28;20056;-86
2023/05/10 04:04:00;;;;;;;8.13;5.28;;;12.80;99.90;;;;;;5018457;28;20032;-86
2023/05/10 04:06:26;;;;;;;7.03;4.80;;;12.70;99.90;;;;;;5002766;28;20446;-87
2023/05/10 04:08:52;;;;;;;9.55;5.55;;;12.70;99.90;;;;;;5000874;28;20037;-86
2023/05/10 04:11:17;;;;;;;12.00;6.25;;;12.70;99.90;;;;;;5007110;28;20095;-86
2023/05/10 04:13:43;;;;;;;8.48;6.50;;;12.70;99.90;;;;;;5030131;28;20037;-86
2023/05/10 04:16:09;;;;;;;10.05;6.70;;;12.70;99.90;;;;;;5005220;28;20045;-87
2023/05/10 04:18:35;;;;;;;10.27;6.20;;;12.70;99.90;;;;;;5016844;28;20037;-86
2023/05/10 04:21:01;;;;;;;9.23;5.90;;;12.70;99.90;;;;;;5006165;28;20041;-86
2023/05/10 04:23:27;;;;;;;8.43;6.07;;;12.70;99.90;;;;;;5004559;28;20578;-87
2023/05/10 04:25:59;;;;;;;8.73;5.55;;;12.70;99.90;;;;;;5019995;28;20507;-87
2023/05/10 04:28:25;;;;;;;7.93;5.68;;;12.70;99.90;;;;;;5002772;28;20068;-87
2023/05/10 04:30:51;;;;;;;10.85;6.90;;;12.70;99.90;;;;;;5020947;28;20504;-87
2023/05/10 04:33:16;;;;;;;7.93;6.00;;;12.70;99.90;;;;;;5015561;28;20102;-86
2023/05/10 04:35:42;;;;;;;12.10;6.60;;;12.70;99.90;;;;;;4986483;28;20052;-87
2023/05/10 04:38:08;;;;;;;8.80;5.88;;;12.70;99.90;;;;;;4986657;28;20076;-86
2023/05/10 04:40:34;;;;;;;11.98;6.60;;;12.70;99.90;;;;;;4998896;28;20112;-87
2023/05/10 04:42:59;;;;;;;10.20;6.40;;;12.70;99.90;;;;;;5004782;28;20045;-87
2023/05/10 04:45:25;;;;;;;11.23;7.38;;;12.70;99.90;;;;;;4985903;28;20037;-86
2023/05/10 04:47:51;;;;;;;10.25;6.20;;;12.70;99.90;;;;;;5016445;28;20037;-86
2023/05/10 04:50:17;;;;;;;10.52;7.05;;;12.70;99.90;;;;;;5017582;28;20482;-86
2023/05/10 04:52:42;;;;;;;11.95;6.90;;;12.70;99.90;;;;;;5003789;28;20040;-87
2023/05/10 04:55:09;;;;;;;14.52;7.32;;;12.70;99.90;;;;;;5033752;28;20045;-87
2023/05/10 04:57:35;;;;;;;10.77;7.50;;;12.70;99.90;;;;;;5038525;28;20111;-86
2023/05/10 05:00:01;;;;;;;11.82;6.95;;;12.70;99.90;;;;;;5039131;28;20045;-86
2023/05/10 05:02:27;;;;;;;9.80;6.85;;;12.80;99.90;;;;;;5019486;28;20396;-87
2023/05/10 05:04:53;;;;;;;10.13;7.00;;;12.70;99.90;;;;;;4990459;28;20040;-85
2023/05/10 05:07:18;;;;;;;8.82;6.95;;;12.80;99.90;;;;;;5013889;28;20043;-85
2023/05/10 05:09:44;;;;;;;12.30;7.88;;;12.80;99.90;;;;;;5005865;28;20047;-85
2023/05/10 05:12:13;;;;;;;13.02;7.50;;;12.80;99.90;;;;;;5021610;28;20052;-86
2023/05/10 05:14:39;;;;;;;12.52;7.63;;;12.80;99.90;;;;;;5004174;28;20078;-86
2023/05/10 05:17:05;;;;;;;14.20;8.15;;;12.80;99.90;;;;;;5005405;28;20323;-87
2023/05/10 05:19:31;;;;;;;13.57;7.55;;;12.80;99.90;;;;;;5021615;28;20485;-87
2023/05/10 05:21:57;;;;;;;12.00;7.30;;;12.80;99.90;;;;;;5004663;28;20095;-87
2023/05/10 05:24:23;;;;;;;13.05;8.05;;;12.80;99.90;;;;;;4999109;28;20041;-86
2023/05/10 05:26:48;;;;;;;11.98;8.27;;;12.80;99.90;;;;;;5008910;28;20119;-87
2023/05/10 05:29:14;;;;;;;12.00;8.27;;;12.80;99.90;;;;;;5019139;28;20045;-86
2023/05/10 05:31:40;;;;;;;13.82;8.25;;;12.90;99.90;;;;;;4996060;28;20048;-86
2023/05/10 05:34:05;;;;;;;13.88;8.48;;;12.80;99.90;;;;;;4995030;28;20045;-87
2023/05/10 05:36:31;;;;;;;15.90;9.40;;;12.90;99.90;;;;;;4989794;28;20465;-86
2023/05/10 05:38:57;;;;;;;14.80;8.27;;;12.90;99.90;;;;;;4970575;28;20124;-87
2023/05/10 05:41:24;;;;;;;12.40;8.20;;;12.90;99.90;;;;;;4986877;28;20040;-87
2023/05/10 05:43:50;;;;;;;15.80;8.98;;;13.00;99.90;;;;;;4988853;28;20378;-87
2023/05/10 05:46:15;;;;;;;14.65;8.63;;;13.00;99.90;;;;;;4988443;28;20048;-85
2023/05/10 05:48:41;;;;;;;18.95;8.88;;;13.00;99.90;;;;;;5002240;28;20124;-86
2023/05/10 05:51:07;;;;;;;14.88;8.35;;;13.00;99.90;;;;;;4986824;28;20061;-86
2023/05/10 05:53:33;;;;;;;13.32;7.88;;;13.00;99.90;;;;;;5032277;28;20065;-86
2023/05/10 05:55:58;;;;;;;14.80;8.73;;;13.10;99.90;;;;;;5017932;28;20083;-85
2023/05/10 05:58:25;;;;;;;15.45;8.90;;;13.00;99.90;;;;;;5035524;28;20125;-88
2023/05/10 06:00:54;;;;;;;14.75;9.05;;;13.00;99.90;;;;;;5013543;28;20033;-87
2023/05/10 06:03:20;;;;;;;17.02;8.88;;;13.00;99.90;;;;;;4999849;28;20044;-88
2023/05/10 06:05:47;;;;;;;16.67;9.43;;;13.00;99.90;;;;;;5002946;28;20041;-86
2023/05/10 06:08:12;;;;;;;15.55;8.75;;;13.10;99.90;;;;;;5001952;28;20041;-86
2023/05/10 06:10:38;;;;;;;17.60;9.43;;;13.10;99.90;;;;;;4996322;28;20397;-86
2023/05/10 06:13:04;;;;;;;17.30;9.10;;;13.10;99.90;;;;;;5002821;28;20048;-87
2023/05/10 06:15:30;;;;;;;15.95;8.80;;;13.10;99.90;;;;;;4983515;28;20543;-87
2023/05/10 06:17:55;;;;;;;18.38;9.30;;;13.10;99.90;;;;;;5021166;28;20408;-87
2023/05/10 06:20:21;;;;;;;16.83;9.10;;;13.10;99.90;;;;;;4996893;28;20120;-87
2023/05/10 06:22:47;;;;;;;17.98;9.43;;;13.10;99.90;;;;;;5013539;28;20076;-85
2023/05/10 06:25:14;;;;;;;14.80;9.30;;;13.10;99.90;;;;;;5002861;28;20040;-87
2023/05/10 06:27:39;;;;;;;17.85;9.70;;;13.10;99.90;;;;;;5010800;28;20045;-87
2023/05/10 06:30:06;;;;;;;13.80;9.60;;;13.20;99.90;;;;;;4994520;28;20503;-86
2023/05/10 06:32:31;;;;;;;17.02;9.65;;;13.20;99.90;;;;;;5008194;28;20047;-88
2023/05/10 06:34:57;;;;;;;13.90;9.38;;;13.30;99.90;;;;;;4993679;28;20120;-88
2023/05/10 06:37:23;;;;;;;15.77;10.35;;;13.30;99.90;;;;;;4986296;28;20037;-91
2023/05/10 06:39:48;;;;;;;15.88;9.07;;;13.40;99.90;;;;;;4986985;28;20083;-88
2023/05/10 06:42:14;;;;;;;13.18;8.57;;;13.40;99.90;;;;;;5000586;28;20468;-84
2023/05/10 06:44:40;;;;;;;14.07;8.90;;;13.40;99.90;;;;;;4966340;28;20042;-86
2023/05/10 06:47:05;;;;;;;17.40;9.45;;;13.40;99.90;;;;;;4998550;28;20110;-86
2023/05/10 06:49:31;;;;;;;17.65;9.00;;;13.50;99.90;;;;;;5015534;28;20040;-88
2023/05/10 06:51:57;;;;;;;15.52;8.57;;;13.50;99.90;;;;;;4998249;28;20044;-87
2023/05/10 06:54:23;;;;;;;15.63;9.82;;;13.50;99.90;;;;;;5020335;28;20064;-88
2023/05/10 06:56:48;;;;;;;14.88;8.95;;;13.50;99.90;;;;;;4995315;28;20047;-89
2023/05/10 06:59:16;;;;;;;15.68;9.68;;;13.50;99.90;;;;;;5018210;28;20056;-87
2023/05/10 07:01:42;;;;;;;20.65;9.77;;;13.50;99.90;;;;;;5000956;28;20444;-88
2023/05/10 07:04:09;;;;;;;15.32;8.93;;;13.50;99.90;;;;;;5020244;28;20045;-88
2023/05/10 07:06:35;;;;;;;14.85;8.80;;;13.50;99.90;;;;;;5018763;28;20049;-89
2023/05/10 07:09:02;;;;;;;17.83;8.82;;;13.50;99.90;;;;;;4986742;28;20076;-90
2023/05/10 07:11:27;;;;;;;15.02;8.93;;;13.60;99.90;;;;;;5017757;28;20052;-88
2023/05/10 07:13:53;;;;;;;14.55;8.80;;;13.60;99.90;;;;;;5018235;28;20049;-89
2023/05/10 07:16:19;;;;;;;15.23;8.82;;;13.50;99.90;;;;;;5003585;28;20130;-88
2023/05/10 07:18:45;;;;;;;14.85;8.38;;;13.60;99.90;;;;;;5001898;28;20055;-87
2023/05/10 07:21:10;;;;;;;14.35;8.45;;;13.60;99.90;;;;;;5001580;28;20048;-87
2023/05/10 07:23:36;;;;;;;14.25;8.48;;;13.60;99.90;;;;;;5007842;28;20033;-88
2023/05/10 07:26:02;;;;;;;14.43;8.35;;;13.60;99.90;;;;;;5016286;28;20056;-88
2023/05/10 07:28:28;;;;;;;15.15;7.75;;;13.70;99.90;;;;;;5002381;28;20061;-88
2023/05/10 07:30:53;;;;;;;11.60;7.15;;;13.70;99.90;;;;;;5015510;28;20044;-89
2023/05/10 07:33:19;;;;;;;12.10;6.45;;;13.80;99.90;;;;;;5005196;28;20048;-90
2023/05/10 07:35:45;;;;;;;10.63;6.25;;;13.90;99.90;;;;;;5004466;28;20081;-91
2023/05/10 07:38:11;;;;;;;10.68;5.13;;;14.00;99.90;;;;;;4988591;28;20083;-89
2023/05/10 07:40:37;;;;;;;7.35;4.65;;;14.10;99.90;;;;;;4998249;28;20046;-88
2023/05/10 07:43:02;;;;;;;6.80;4.07;;;14.10;99.90;;;;;;5008493;28;20045;-88
2023/05/10 07:45:28;;;;;;;7.93;4.35;;;14.10;99.90;;;;;;5020815;28;20051;-87
2023/05/10 07:47:54;;;;;;;5.20;2.95;;;14.20;99.90;;;;;;5005723;28;20391;-88
2023/05/10 07:50:21;;;;;;;5.07;2.65;;;14.20;99.90;;;;;;5004231;28;20121;-88
2023/05/10 07:52:47;;;;;;;5.05;2.50;;;14.20;99.90;;;;;;5001997;28;20041;-87
2023/05/10 07:55:13;;;;;;;5.35;2.78;;;14.30;99.90;;;;;;5003900;28;20095;-87
2023/05/10 07:57:39;;;;;;;4.25;2.70;;;14.30;99.90;;;;;;5015418;28;20075;-87
2023/05/10 08:00:06;;;;;;;5.30;2.58;;;14.30;99.90;;;;;;4993521;28;20130;-85
2023/05/10 08:02:34;;;;;;;5.03;2.72;;;14.40;99.90;;;;;;5006848;28;20041;-88
2023/05/10 08:05:00;;;;;;;4.60;2.47;;;14.30;99.90;;;;;;5023580;28;20075;-88
2023/05/10 08:07:26;;;;;;;4.57;2.90;;;14.40;99.90;;;;;;5019928;28;20060;-86
2023/05/10 08:09:52;;;;;;;5.53;3.30;;;14.40;99.90;;;;;;5027130;28;20051;-89
2023/05/10 08:12:17;;;;;;;4.47;3.20;;;14.30;99.90;;;;;;5027958;28;20036;-88
2023/05/10 08:14:43;;;;;;;4.75;3.65;;;14.30;99.90;;;;;;5017873;28;20045;-88
2023/05/10 08:17:09;;;;;;;6.60;4.10;;;14.40;99.90;;;;;;4984861;28;20065;-88
2023/05/10 08:19:34;;;;;;;7.10;4.10;;;14.40;99.90;;;;;;4987397;28;20046;-87
2023/05/10 08:22:00;;;;;;;8.52;5.00;;;14.50;99.90;;;;;;4987576;28;20128;-89
2023/05/10 08:24:26;;;;;;;7.13;5.07;;;14.60;99.90;;;;;;5021576;28;20041;-89
2023/05/10 08:26:52;;;;;;;6.30;4.43;;;14.60;99.90;;;;;;5039982;28;20040;-88
2023/05/10 08:29:17;;;;;;;7.07;4.82;;;14.60;99.90;;;;;;4990414;28;20523;-90
2023/05/10 08:31:43;;;;;;;6.47;4.88;;;14.70;99.90;;;;;;5022582;28;20037;-90
2023/05/10 08:34:09;;;;;;;8.43;5.25;;;14.80;99.90;;;;;;4991576;28;20041;-86
2023/05/10 08:36:35;;;;;;;9.05;5.55;;;14.90;99.90;;;;;;5008634;28;20045;-88
2023/05/10 08:39:00;;;;;;;8.15;5.63;;;13.90;99.90;;;;;;4990803;28;20127;-88
2023/05/10 08:41:26;;;;;;;8.43;5.47;;;15.00;99.90;;;;;;5008275;28;20041;-88
2023/05/10 08:43:53;;;;;;;9.82;5.78;;;15.10;99.90;;;;;;5006178;28;20037;-89
2023/05/10 08:46:20;;;;;;;8.05;5.82;;;15.10;99.90;;;;;;5033738;28;20136;-87
2023/05/10 08:48:48;;;;;;;8.52;5.72;;;15.20;99.90;;;;;;5025325;28;20116;-87
2023/05/10 08:51:26;;;;;;;7.93;5.30;;;15.30;99.90;;;;;;5027440;28;20175;-87
2023/05/10 08:53:52;;;;;;;9.20;5.32;;;15.30;99.90;;;;;;5033710;28;20508;-87
2023/05/10 08:56:19;;;;;;;9.05;5.28;;;15.40;99.90;;;;;;5018388;28;20041;-87
2023/05/10 08:58:45;;;;;;;8.15;5.78;;;15.40;99.90;;;;;;4996847;28;20602;-88
2023/05/10 09:01:12;;;;;;;6.38;5.20;;;15.50;99.90;;;;;;5001461;28;20120;-87
2023/05/10 09:03:41;;;;;;;8.00;5.63;;;15.50;99.90;;;;;;4999012;28;20045;-87
2023/05/10 09:06:07;;;;;;;8.35;6.25;;;15.50;99.90;;;;;;5015816;28;20025;-87
2023/05/10 09:08:34;;;;;;;8.40;6.38;;;15.60;99.90;;;;;;5011153;28;20036;-88
2023/05/10 09:11:01;;;;;;;10.75;6.15;;;15.70;99.90;;;;;;5016802;28;20122;-87
2023/05/10 09:13:28;;;;;;;10.07;6.82;;;15.70;99.90;;;;;;5005654;28;20048;-88
2023/05/10 09:15:54;;;;;;;9.65;6.97;;;15.70;99.90;;;;;;5008722;28;20089;-87
2023/05/10 09:18:19;;;;;;;11.27;7.90;;;15.70;99.90;;;;;;4999951;28;20041;-87
2023/05/10 09:20:45;;;;;;;11.18;7.60;;;15.60;99.90;;;;;;4995138;28;20037;-87
2023/05/10 09:23:11;;;;;;;13.20;8.48;;;15.60;99.90;;;;;;5000710;28;20082;-88
2023/05/10 09:25:38;;;;;;;15.77;8.43;;;15.60;99.90;;;;;;5003936;28;20473;-86
2023/05/10 09:28:07;;;;;;;12.52;8.52;;;15.60;99.90;;;;;;4995370;28;20148;-87
2023/05/10 09:30:33;;;;;;;11.18;8.00;;;15.60;99.90;;;;;;5017750;28;20060;-88
2023/05/10 09:33:00;;;;;;;11.77;8.40;;;15.50;99.90;;;;;;5007555;28;20041;-87
2023/05/10 09:35:31;;;;;;;11.65;8.05;;;15.40;99.90;;;;;;5013448;28;20045;-87
2023/05/10 09:38:00;;;;;;;10.73;8.20;;;15.50;99.90;;;;;;5011996;28;20037;-87
2023/05/10 09:40:28;;;;;;;11.45;8.07;;;15.50;99.90;;;;;;5034471;28;20073;-87
2023/05/10 09:42:58;;;;;;;11.07;8.25;;;15.60;99.90;;;;;;5019549;28;20033;-88
2023/05/10 09:45:27;;;;;;;12.07;8.75;;;15.60;99.90;;;;;;5024205;28;20120;-88
2023/05/10 09:47:54;;;;;;;14.80;9.32;;;15.60;99.90;;;;;;5037582;28;20492;-88
2023/05/10 09:50:20;;;;;;;11.52;8.18;;;15.60;99.90;;;;;;5021338;28;20033;-88
2023/05/10 09:53:00;;;;;;;12.40;9.27;;;15.70;99.90;;;;;;5028886;28;20037;-88
2023/05/10 09:55:49;;;;;;;16.17;10.70;;;15.70;99.90;;;;;;5031344;28;20048;-88
2023/05/10 09:58:15;;;;;;;14.35;10.07;;;15.70;99.90;;;;;;5019956;28;20079;-87
2023/05/10 10:00:43;;;;;;;12.70;9.82;;;15.80;99.90;;;;;;5020551;28;20044;-88
2023/05/10 10:03:14;;;;;;;12.95;9.40;;;15.90;99.90;;;;;;5000288;28;20037;-88
2023/05/10 10:05:42;;;;;;;11.05;8.77;;;15.90;99.90;;;;;;5008607;28;20393;-87
2023/05/10 10:08:08;;;;;;;15.85;10.07;;;16.00;99.90;;;;;;5015176;28;20421;-88
2023/05/10 10:10:34;;;;;;;12.60;8.90;;;16.00;99.90;;;;;;4999152;28;20037;-87
2023/05/10 10:13:00;;;;;;;13.07;10.13;;;16.00;99.90;;;;;;5017746;28;20473;-88
2023/05/10 10:15:27;;;;;;;12.68;9.40;;;16.00;99.90;;;;;;4984140;28;20072;-86
2023/05/10 10:17:53;;;;;;;14.95;10.48;;;16.00;99.90;;;;;;5018115;28;20132;-88
2023/05/10 10:20:22;;;;;;;14.45;10.25;;;15.90;99.90;;;;;;5016637;28;20041;-86
2023/05/10 10:22:48;;;;;;;14.88;9.85;;;15.90;99.90;;;;;;5031813;28;20049;-88
2023/05/10 10:25:15;;;;;;;14.68;10.23;;;15.80;99.90;;;;;;5001826;28;20041;-86
2023/05/10 10:27:54;;;;;;;12.68;10.27;;;15.80;99.90;;;;;;5012283;28;20041;-88
2023/05/10 10:30:26;;;;;;;15.68;10.70;;;15.80;99.90;;;;;;5016132;28;20038;-87
2023/05/10 10:33:12;;;;;;;14.27;10.23;;;15.60;99.90;;;;;;5009087;28;20037;-89
2023/05/10 10:35:39;;;;;;;12.63;9.98;;;15.60;99.90;;;;;;5018580;28;20049;-88
2023/05/10 10:38:08;;;;;;;13.80;10.23;;;15.60;99.90;;;;;;4995627;28;20079;-90
2023/05/10 10:40:34;;;;;;;11.98;9.10;;;15.60;99.90;;;;;;5003343;28;20044;-88
2023/05/10 10:43:26;;;;;;;13.40;10.10;;;15.70;99.90;;;;;;4986292;28;20044;-87
2023/05/10 10:46:16;;;;;;;13.65;9.90;;;15.70;99.90;;;;;;5014487;28;20044;-88
2023/05/10 10:48:48;;;;;;;11.63;9.00;;;15.80;99.90;;;;;;5000594;28;20039;-88
2023/05/10 10:51:14;;;;;;;14.25;9.85;;;15.70;99.90;;;;;;5014286;28;20091;-89
2023/05/10 10:53:41;;;;;;;13.73;9.20;;;15.70;99.90;;;;;;4979975;28;20038;-89
2023/05/10 10:56:09;;;;;;;13.15;9.55;;;15.70;99.90;;;;;;5010186;28;20120;-88
2023/05/10 10:58:36;;;;;;;12.68;9.75;;;15.70;99.90;;;;;;5031469;28;20045;-86
2023/05/10 11:01:16;;;;;;;11.25;9.18;;;15.80;99.90;;;;;;5015848;28;20120;-86
2023/05/10 11:04:02;;;;;;;13.07;10.15;;;15.80;99.90;;;;;;5007585;28;20452;-87
2023/05/10 11:06:33;;;;;;;12.98;9.90;;;15.70;99.90;;;;;;5012058;28;20544;-86
2023/05/10 11:09:09;;;;;;;14.00;9.90;;;15.70;99.90;;;;;;5014982;28;20093;-84
2023/05/10 11:11:35;;;;;;;14.10;9.75;;;15.60;99.90;;;;;;5007365;28;20107;-86
2023/05/10 11:14:07;;;;;;;14.50;10.60;;;15.60;99.90;;;;;;5019703;28;20037;-87
2023/05/10 11:16:43;;;;;;;16.35;11.70;;;15.50;99.90;;;;;;5013167;28;20127;-91
2023/05/10 11:19:13;;;;;;;;;;;15.40;99.90;;;;;;5017515;28;20041;-89
2023/05/10 11:22:05;;;;;;;15.60;11.45;;;15.30;99.90;;;;;;4997669;28;19921;-89
2023/05/10 11:24:31;;;;;;;14.82;11.60;;;15.30;99.90;;;;;;4991840;28;20056;-88
2023/05/10 11:26:57;;;;;;;15.55;12.00;;;15.00;99.90;;;;;;5028321;28;20141;-89
2023/05/10 11:29:26;;;;;;;15.40;11.73;;;15.20;99.90;;;;;;4993522;28;20124;-90
2023/05/10 11:31:51;;;;;;;17.75;11.25;;;15.20;99.90;;;;;;4995771;28;20073;-89
2023/05/10 11:34:33;;;;;;;15.45;11.52;;;15.20;99.90;;;;;;4998890;28;20508;-89
2023/05/10 11:36:59;;;;;;;16.30;10.80;;;15.20;99.90;;;;;;4990126;28;20042;-90
2023/05/10 11:39:30;;;;;;;16.52;11.70;;;15.20;99.90;;;;;;5000953;28;20037;-90
2023/05/10 11:41:57;;;;;;;14.52;9.95;;;15.20;99.90;;;;;;5003733;28;20049;-88
2023/05/10 11:44:23;;;;;;;13.55;9.85;;;15.30;99.90;;;;;;5017437;28;20107;-90
2023/05/10 11:46:49;;;;;;;14.80;9.82;;;15.30;99.90;;;;;;5000526;28;20041;-89
2023/05/10 11:49:15;;;;;;;14.35;10.23;;;15.30;99.90;;;;;;4994396;28;20037;-89
2023/05/10 11:51:43;;;;;;;12.90;9.77;;;15.40;99.90;;;;;;5004169;28;20017;-89
2023/05/10 11:54:10;;;;;;;12.15;9.30;;;15.50;99.90;;;;;;4994234;28;20045;-89
2023/05/10 11:56:37;;;;;;;12.23;8.90;;;15.60;99.90;;;;;;5014861;28;20045;-90
2023/05/10 11:59:04;;;;;;;15.00;9.20;;;15.70;99.90;;;;;;4977647;28;20034;-85
2023/05/10 12:01:31;;;;;;;14.68;8.75;;;15.80;99.90;;;;;;4983293;28;20168;-85
2023/05/10 12:03:58;;;;;;;12.18;8.75;;;15.90;99.90;;;;;;4999357;28;20041;-85
2023/05/10 12:06:30;;;;;;;13.10;8.95;;;16.00;99.90;;;;;;4987400;28;20389;-85
2023/05/10 12:08:57;;;;;;;11.52;9.27;;;16.10;99.90;;;;;;4993181;28;20121;-85
2023/05/10 12:11:28;;;;;;;15.77;9.18;;;16.10;99.90;;;;;;4996604;28;20049;-85
2023/05/10 12:13:54;;;;;;;12.70;8.90;;;16.20;99.90;;;;;;5016651;28;20112;-85
2023/05/10 12:16:28;;;;;;;12.68;9.55;;;16.20;99.90;;;;;;5018115;28;20072;-84
2023/05/10 12:18:58;;;;;;;12.88;10.05;;;16.20;99.90;;;;;;5016952;28;20045;-85
2023/05/10 12:21:24;;;;;;;13.90;9.55;;;16.20;99.90;;;;;;5012460;28;20114;-84
2023/05/10 12:23:52;;;;;;;10.80;8.50;;;16.20;99.90;;;;;;4991538;28;20044;-84
2023/05/10 12:26:21;;;;;;;12.02;9.18;;;16.20;99.90;;;;;;5014800;28;20400;-84
2023/05/10 12:28:46;;;;;;;13.57;9.40;;;16.10;99.90;;;;;;5013647;28;20084;-86
2023/05/10 12:31:12;;;;;;;17.60;9.90;;;16.10;99.90;;;;;;4997755;28;20033;-84
2023/05/10 12:33:42;;;;;;;12.75;9.70;;;16.00;99.90;;;;;;5016562;28;20489;-85
2023/05/10 12:36:13;;;;;;;12.70;9.60;;;16.00;99.90;;;;;;5015385;28;20113;-86
2023/05/10 12:38:43;;;;;;;14.90;9.07;;;16.00;99.90;;;;;;4992105;28;20045;-86
2023/05/10 12:41:11;;;;;;;12.90;9.88;;;15.90;99.90;;;;;;5036277;28;20485;-87
2023/05/10 12:43:38;;;;;;;15.85;9.45;;;15.90;99.90;;;;;;5014452;28;20671;-88
2023/05/10 12:46:10;;;;;;;13.88;9.20;;;15.80;99.90;;;;;;5005906;28;20041;-87
2023/05/10 12:48:38;;;;;;;12.57;9.38;;;15.80;99.90;;;;;;5034784;28;20048;-85
2023/05/10 12:51:04;;;;;;;13.65;9.73;;;15.80;99.90;;;;;;5022784;28;20110;-85
2023/05/10 12:53:31;;;;;;;15.15;9.32;;;15.80;99.90;;;;;;5021173;28;20049;-85
2023/05/10 12:55:57;;;;;;;15.02;8.93;;;15.80;99.90;;;;;;5014604;28;20045;-85